createdAt,value
2017-07-28T00:02:46.950Z,"    0"
2017-07-28T00:07:42.784Z,"    0"
2017-07-28T00:12:38.747Z,"    0"
2017-07-28T00:17:37.904Z,"    0"
2017-07-28T00:22:38.381Z,"    0"
2017-07-28T00:27:35.646Z,"    0"
2017-07-28T00:32:35.574Z,"    0"
2017-07-28T00:42:36.194Z,"    0"
2017-07-28T00:47:34.002Z,"    0"
2017-07-28T00:52:29.529Z,"    0"
2017-07-28T00:57:25.778Z,"    0"
2017-07-28T01:02:21.650Z,"    0"
2017-07-28T01:07:22.501Z,"    0"
2017-07-28T01:12:18.393Z,"    0"
2017-07-28T01:17:16.743Z,"    0"
2017-07-28T01:27:20.504Z,"    0"
2017-07-28T01:37:22.501Z,"    0"
2017-07-28T01:52:24.748Z,"    0"
2017-07-28T02:02:23.623Z,"    0"
2017-07-28T02:07:21.482Z,"    0"
2017-07-28T02:12:18.988Z,"    0"
2017-07-28T02:17:15.610Z,"    0"
2017-07-28T02:22:14.208Z,"    0"
2017-07-28T02:32:15.698Z,"    0"
2017-07-28T02:37:10.787Z,"    0"
2017-07-28T02:42:09.149Z,"    0"
2017-07-28T02:47:07.198Z,"    0"
2017-07-28T02:52:03.942Z,"    0"
2017-07-28T02:57:01.838Z,"    0"
2017-07-28T03:02:06.581Z,"    0"
2017-07-28T03:07:02.930Z,"    4"
2017-07-28T03:17:07.809Z,"    8"
2017-07-28T03:22:04.251Z,"   16"
2017-07-28T03:32:04.632Z,"   44"
2017-07-28T03:37:03.927Z,"   60"
2017-07-28T03:42:00.041Z,"   84"
2017-07-28T03:46:56.414Z,"  124"
2017-07-28T03:51:52.191Z,"  180"
2017-07-28T03:56:49.032Z,"  244"
2017-07-28T04:01:44.948Z,"  352"
2017-07-28T04:06:42.230Z,"  524"
2017-07-28T04:11:38.476Z,"  732"
2017-07-28T04:16:35.066Z,"  860"
2017-07-28T04:21:31.278Z," 1152"
2017-07-28T04:26:28.231Z," 1304"
2017-07-28T04:31:26.477Z," 1460"
2017-07-28T04:36:23.077Z," 1300"
2017-07-28T04:41:18.788Z," 1828"
2017-07-28T04:46:15.445Z," 1712"
2017-07-28T04:51:11.185Z," 1988"
2017-07-28T04:56:07.286Z," 1916"
2017-07-28T05:01:03.055Z," 2008"
2017-07-28T05:05:59.436Z," 1780"
2017-07-28T05:10:56.320Z," 2240"
2017-07-28T05:15:52.518Z," 3264"
2017-07-28T05:20:48.555Z," 3172"
2017-07-28T05:25:44.630Z," 2136"
2017-07-28T05:30:41.710Z," 2652"
2017-07-28T05:35:37.557Z," 5652"
2017-07-28T05:40:34.945Z," 3636"
2017-07-28T05:45:30.697Z," 2792"
2017-07-28T05:50:28.329Z," 4888"
2017-07-28T05:55:24.209Z," 4436"
2017-07-28T06:00:21.601Z," 4120"
2017-07-28T06:05:17.345Z," 6220"
2017-07-28T06:10:13.377Z," 5480"
2017-07-28T06:15:09.470Z," 4916"
2017-07-28T06:20:06.558Z," 4708"
2017-07-28T06:25:02.338Z," 6888"
2017-07-28T06:29:59.274Z," 6924"
2017-07-28T06:34:55.493Z," 8616"
2017-07-28T06:39:51.685Z," 7580"
2017-07-28T06:44:47.613Z," 8932"
2017-07-28T06:49:43.768Z," 7896"
2017-07-28T06:54:39.908Z,11424
2017-07-28T06:59:36.100Z," 8228"
2017-07-28T07:04:33.025Z,12244
2017-07-28T07:09:30.195Z,12172
2017-07-28T07:14:26.936Z," 7696"
2017-07-28T07:19:22.575Z,11804
2017-07-28T07:24:18.567Z,14860
2017-07-28T07:29:14.881Z," 9428"
2017-07-28T07:34:10.618Z," 7616"
2017-07-28T07:39:06.528Z," 9264"
2017-07-28T07:44:03.760Z," 8852"
2017-07-28T07:49:00.485Z," 7044"
2017-07-28T07:53:55.619Z," 6304"
2017-07-28T07:58:52.528Z," 9080"
2017-07-28T08:03:48.812Z,10320
2017-07-28T08:08:44.995Z," 8236"
2017-07-28T08:13:40.743Z," 5364"
2017-07-28T08:18:36.598Z," 8696"
2017-07-28T08:23:32.609Z,13100
2017-07-28T08:28:28.683Z," 8892"
2017-07-28T08:33:25.440Z,12324
2017-07-28T08:38:21.185Z," 8632"
2017-07-28T08:43:17.115Z,20128
2017-07-28T08:48:14.776Z,12116
2017-07-28T08:53:10.581Z,18912
2017-07-28T08:58:07.453Z,12640
2017-07-28T09:03:03.229Z," 9156"
2017-07-28T09:08:00.044Z,18592
2017-07-28T09:12:57.500Z,15164
2017-07-28T09:17:53.617Z,13948
2017-07-28T09:22:49.995Z,23200
2017-07-28T09:27:46.613Z,14908
2017-07-28T09:32:42.152Z,51744
2017-07-28T09:37:40.801Z,69824
2017-07-28T09:42:37.732Z," 3656"
2017-07-28T09:47:32.884Z," 8772"
2017-07-28T09:52:28.522Z,80448
2017-07-28T09:57:28.544Z,50784
2017-07-28T10:02:25.681Z,15048
2017-07-28T10:07:21.684Z,69088
2017-07-28T10:12:17.966Z,69792
2017-07-28T10:17:16.277Z,73152
2017-07-28T10:22:14.039Z,20320
2017-07-28T10:27:10.080Z,99776
2017-07-28T10:32:07.474Z,31072
2017-07-28T10:37:03.299Z,98656
2017-07-28T10:42:00.039Z," 9692"
2017-07-28T10:46:54.172Z,111264
2017-07-28T10:51:52.733Z,93664
2017-07-28T10:56:49.166Z," 7888"
2017-07-28T11:01:42.492Z," 3044"
2017-07-28T11:06:37.380Z,12168
2017-07-28T11:11:33.933Z,15536
2017-07-28T11:16:29.697Z,13972
2017-07-28T11:21:26.728Z,11896
2017-07-28T11:26:23.486Z," 9640"
2017-07-28T11:31:19.443Z," 5456"
2017-07-28T11:36:14.617Z," 4036"
2017-07-28T11:41:09.861Z," 3616"
2017-07-28T11:46:06.507Z," 1572"
2017-07-28T11:51:01.815Z," 3308"
2017-07-28T11:55:58.728Z," 6344"
2017-07-28T12:00:54.432Z,11840
2017-07-28T12:05:56.336Z,29856
2017-07-28T12:10:53.266Z,11084
2017-07-28T12:15:48.946Z,11820
2017-07-28T12:20:45.213Z,13584
2017-07-28T12:25:43.156Z,14344
2017-07-28T12:30:40.202Z,26464
2017-07-28T12:35:39.502Z,66400
2017-07-28T12:40:36.904Z,42304
2017-07-28T12:45:36.463Z,59936
2017-07-28T12:50:31.712Z,88768
2017-07-28T12:55:29.506Z,56608
2017-07-28T13:00:24.888Z," 8096"
2017-07-28T13:05:20.235Z," 3864"
2017-07-28T13:10:14.852Z," 3524"
2017-07-28T13:15:10.129Z,76160
2017-07-28T13:20:09.045Z,91008
2017-07-28T13:25:06.324Z,100288
2017-07-28T13:30:01.367Z,25344
2017-07-28T13:34:57.638Z,12252
2017-07-28T13:39:52.448Z," 7132"
2017-07-28T13:44:47.777Z," 3120"
2017-07-28T13:49:45.551Z," 2432"
2017-07-28T13:54:40.692Z," 3568"
2017-07-28T13:59:36.182Z," 8124"
2017-07-28T14:04:32.078Z," 8540"
2017-07-28T14:09:28.190Z," 7676"
2017-07-28T14:14:24.183Z," 9648"
2017-07-28T14:19:20.683Z,12108
2017-07-28T14:24:18.156Z,10724
2017-07-28T14:29:15.131Z," 8440"
2017-07-28T14:34:11.755Z,10836
2017-07-28T14:39:07.912Z," 7084"
2017-07-28T14:44:04.329Z," 6816"
2017-07-28T14:49:01.583Z," 9556"
2017-07-28T14:53:58.258Z," 9220"
2017-07-28T14:58:54.936Z," 7220"
2017-07-28T15:03:50.761Z," 8896"
2017-07-28T15:08:47.673Z," 6188"
2017-07-28T15:13:46.200Z," 6092"
2017-07-28T15:18:41.606Z," 7940"
2017-07-28T15:23:38.382Z," 8512"
2017-07-28T15:28:34.217Z," 6424"
2017-07-28T15:38:30.757Z," 7856"
2017-07-28T15:48:27.408Z," 4788"
2017-07-28T15:53:23.751Z," 2932"
2017-07-28T15:58:20.795Z," 2704"
2017-07-28T16:03:17.331Z," 4828"
2017-07-28T16:08:13.159Z," 4548"
2017-07-28T16:13:10.274Z," 3308"
2017-07-28T16:18:08.068Z," 2812"
2017-07-28T16:23:03.947Z," 2524"
2017-07-28T16:28:00.003Z," 2924"
2017-07-28T16:32:56.953Z," 2356"
2017-07-28T16:37:53.587Z," 2328"
2017-07-28T16:47:54.078Z," 3904"
2017-07-28T16:52:50.858Z," 4932"
2017-07-28T16:57:46.691Z," 3328"
2017-07-28T17:02:43.623Z," 4356"
2017-07-28T17:07:40.300Z," 3280"
2017-07-28T17:12:35.951Z," 3040"
2017-07-28T17:17:33.051Z," 2416"
2017-07-28T17:22:28.652Z," 1732"
2017-07-28T17:27:24.474Z," 2692"
2017-07-28T17:32:20.596Z," 2088"
2017-07-28T17:37:17.562Z," 2456"
2017-07-28T17:42:15.320Z," 1476"
2017-07-28T17:47:12.781Z,"  652"
2017-07-28T17:52:08.238Z," 1288"
2017-07-28T17:57:04.606Z," 1392"
2017-07-28T18:02:00.637Z," 1696"
2017-07-28T18:06:57.734Z," 1888"
2017-07-28T18:11:53.286Z," 1532"
2017-07-28T18:16:48.998Z," 1056"
2017-07-28T18:21:46.140Z," 1448"
2017-07-28T18:26:41.930Z," 1260"
2017-07-28T18:31:38.144Z," 1064"
2017-07-28T18:36:34.009Z,"  992"
2017-07-28T18:41:30.001Z,"  856"
2017-07-28T18:46:26.024Z,"  704"
2017-07-28T18:51:21.855Z,"  612"
2017-07-28T18:56:18.650Z,"  476"
2017-07-28T19:01:14.410Z,"  344"
2017-07-28T19:06:11.308Z,"  248"
2017-07-28T19:11:08.434Z,"  164"
2017-07-28T19:16:04.427Z,"  116"
2017-07-28T19:21:01.886Z,"   84"
2017-07-28T19:25:58.366Z,"   64"
2017-07-28T19:30:55.155Z,"   40"
2017-07-28T19:35:50.585Z,"   24"
2017-07-28T19:40:46.449Z,"   12"
2017-07-28T19:45:43.136Z,"    8"
2017-07-28T19:50:38.662Z,"    4"
2017-07-28T19:55:35.799Z,"    4"
2017-07-28T20:00:32.617Z,"    0"
2017-07-28T20:05:28.244Z,"    0"
2017-07-28T20:10:24.413Z,"    0"
2017-07-28T20:15:20.289Z,"    0"
2017-07-28T20:20:17.129Z,"    0"
2017-07-28T20:25:12.914Z,"    0"
2017-07-28T20:30:09.874Z,"    0"
2017-07-28T20:35:05.453Z,"    0"
2017-07-28T20:40:01.442Z,"    0"
2017-07-28T20:45:01.201Z,"    0"
2017-07-28T20:49:58.802Z,"    0"
2017-07-28T20:54:54.323Z,"    0"
2017-07-28T20:59:52.708Z,"    0"
2017-07-28T21:04:50.686Z,"    0"
2017-07-28T21:09:46.333Z,"    0"
2017-07-28T21:14:44.109Z,"    0"
2017-07-28T21:19:40.787Z,"    0"
2017-07-28T21:24:38.295Z,"    0"
2017-07-28T21:29:36.182Z,"    0"
2017-07-28T21:34:31.302Z,"    0"
2017-07-28T21:39:30.262Z,"    0"
2017-07-28T21:44:26.908Z,"    0"
2017-07-28T21:49:23.001Z,"    0"
2017-07-28T21:54:19.909Z,"    0"
2017-07-28T21:59:18.948Z,"    0"
2017-07-28T22:04:15.287Z,"    0"
2017-07-28T22:09:12.482Z,"    0"
2017-07-28T22:14:09.329Z,"    0"
2017-07-28T22:19:06.357Z,"    0"
2017-07-28T22:24:02.883Z,"    0"
2017-07-28T22:28:59.050Z,"    0"
2017-07-28T22:33:54.681Z,"    0"
2017-07-28T22:38:52.093Z,"    0"
2017-07-28T22:43:48.806Z,"    0"
2017-07-28T22:48:46.733Z,"    0"
2017-07-28T22:53:42.424Z,"    0"
2017-07-28T22:58:39.336Z,"    0"
2017-07-28T23:03:35.221Z,"    0"
2017-07-28T23:08:31.261Z,"    0"
2017-07-28T23:13:27.958Z,"    0"
2017-07-28T23:18:24.918Z,"    0"
2017-07-28T23:23:21.533Z,"    0"
2017-07-28T23:28:18.526Z,"    0"
2017-07-28T23:33:14.272Z,"    0"
2017-07-28T23:38:11.290Z,"    0"
2017-07-28T23:43:08.077Z,"    0"
2017-07-28T23:48:06.544Z,"    0"
2017-07-28T23:53:02.085Z,"    0"
2017-07-28T23:57:59.035Z,"    0"
